sensor_id;sensor_type;location;lat;lon;timestamp;pressure;altitude;pressure_sealevel;temperature;humidity
35435;BME280;21556;55.782;37.528;2023-07-31T00:02:01;98959.94;;;19.65;100.00
35435;BME280;21556;55.782;37.528;2023-07-31T00:04:27;98960.25;;;19.54;100.00
35435;BME280;21556;55.782;37.528;2023-07-31T00:06:53;98960.25;;;19.54;100.00
35435;BME280;21556;55.782;37.528;2023-07-31T00:09:19;98957.63;;;19.24;100.00
35435;BME280;21556;55.782;37.528;2023-07-31T00:11:46;98961.53;;;19.41;100.00
35435;BME280;21556;55.782;37.528;2023-07-31T00:14:13;98960.16;;;19.28;100.00
35435;BME280;21556;55.782;37.528;2023-07-31T00:16:40;98962.59;;;19.35;100.00
35435;BME280;21556;55.782;37.528;2023-07-31T00:19:09;98955.84;;;19.25;100.00
35435;BME280;21556;55.782;37.528;2023-07-31T00:21:36;98960.41;;;19.20;100.00
35435;BME280;21556;55.782;37.528;2023-07-31T00:24:03;98956.22;;;19.41;100.00
35435;BME280;21556;55.782;37.528;2023-07-31T00:26:29;98962.81;;;19.29;100.00
35435;BME280;21556;55.782;37.528;2023-07-31T00:28:54;98974.06;;;19.37;100.00
35435;BME280;21556;55.782;37.528;2023-07-31T00:31:21;98969.53;;;19.11;100.00
35435;BME280;21556;55.782;37.528;2023-07-31T00:33:47;98967.19;;;19.30;100.00
35435;BME280;21556;55.782;37.528;2023-07-31T00:36:13;98964.47;;;19.32;100.00
35435;BME280;21556;55.782;37.528;2023-07-31T00:38:39;98962.88;;;19.26;100.00
35435;BME280;21556;55.782;37.528;2023-07-31T00:41:05;98962.50;;;19.10;100.00
35435;BME280;21556;55.782;37.528;2023-07-31T00:43:31;98962.25;;;19.18;100.00
35435;BME280;21556;55.782;37.528;2023-07-31T00:45:58;98960.91;;;19.33;100.00
35435;BME280;21556;55.782;37.528;2023-07-31T00:48:26;98962.50;;;19.09;100.00
35435;BME280;21556;55.782;37.528;2023-07-31T00:50:52;98950.47;;;18.97;100.00
35435;BME280;21556;55.782;37.528;2023-07-31T00:53:18;98955.94;;;18.92;100.00
35435;BME280;21556;55.782;37.528;2023-07-31T00:55:46;98958.44;;;18.97;100.00
35435;BME280;21556;55.782;37.528;2023-07-31T00:58:13;98945.47;;;18.86;100.00
35435;BME280;21556;55.782;37.528;2023-07-31T01:00:40;98952.06;;;19.03;100.00
35435;BME280;21556;55.782;37.528;2023-07-31T01:03:06;98954.84;;;18.98;100.00
35435;BME280;21556;55.782;37.528;2023-07-31T01:05:54;98952.41;;;18.92;100.00
35435;BME280;21556;55.782;37.528;2023-07-31T01:08:48;98960.31;;;18.93;100.00
35435;BME280;21556;55.782;37.528;2023-07-31T01:11:28;98956.88;;;18.90;100.00
35435;BME280;21556;55.782;37.528;2023-07-31T01:13:57;98955.22;;;18.86;100.00
35435;BME280;21556;55.782;37.528;2023-07-31T01:16:25;98959.75;;;18.82;100.00
35435;BME280;21556;55.782;37.528;2023-07-31T01:18:55;98960.75;;;18.78;100.00
35435;BME280;21556;55.782;37.528;2023-07-31T01:23:56;98958.91;;;18.80;100.00
35435;BME280;21556;55.782;37.528;2023-07-31T01:26:35;98959.06;;;18.75;100.00
35435;BME280;21556;55.782;37.528;2023-07-31T01:29:20;98951.72;;;18.84;100.00
35435;BME280;21556;55.782;37.528;2023-07-31T01:31:51;98951.88;;;18.79;100.00
35435;BME280;21556;55.782;37.528;2023-07-31T01:34:19;98955.56;;;18.73;100.00
35435;BME280;21556;55.782;37.528;2023-07-31T01:36:46;98951.94;;;18.78;100.00
35435;BME280;21556;55.782;37.528;2023-07-31T01:39:14;98957.63;;;18.62;100.00
35435;BME280;21556;55.782;37.528;2023-07-31T01:41:41;98956.94;;;18.56;100.00
35435;BME280;21556;55.782;37.528;2023-07-31T01:44:07;98958.47;;;18.64;100.00
35435;BME280;21556;55.782;37.528;2023-07-31T01:46:33;98965.28;;;18.42;100.00
35435;BME280;21556;55.782;37.528;2023-07-31T01:48:59;98955.78;;;18.64;100.00
35435;BME280;21556;55.782;37.528;2023-07-31T01:51:25;98954.97;;;18.62;100.00
35435;BME280;21556;55.782;37.528;2023-07-31T01:53:52;98950.63;;;18.60;100.00
35435;BME280;21556;55.782;37.528;2023-07-31T01:56:18;98950.78;;;18.53;100.00
35435;BME280;21556;55.782;37.528;2023-07-31T01:58:44;98955.19;;;18.55;100.00
35435;BME280;21556;55.782;37.528;2023-07-31T02:01:11;98963.38;;;18.80;100.00
35435;BME280;21556;55.782;37.528;2023-07-31T02:03:36;98956.59;;;18.68;100.00
35435;BME280;21556;55.782;37.528;2023-07-31T02:06:02;98956.75;;;18.62;100.00
35435;BME280;21556;55.782;37.528;2023-07-31T02:08:30;98962.13;;;18.60;100.00
35435;BME280;21556;55.782;37.528;2023-07-31T02:10:56;98960.69;;;18.48;100.00
35435;BME280;21556;55.782;37.528;2023-07-31T02:13:22;98964.78;;;18.59;100.00
35435;BME280;21556;55.782;37.528;2023-07-31T02:15:49;98963.19;;;18.53;100.00
35435;BME280;21556;55.782;37.528;2023-07-31T02:18:17;98957.88;;;18.53;100.00
35435;BME280;21556;55.782;37.528;2023-07-31T02:20:43;98965.28;;;18.40;100.00
35435;BME280;21556;55.782;37.528;2023-07-31T02:23:14;98966.06;;;18.45;100.00
35435;BME280;21556;55.782;37.528;2023-07-31T02:25:40;98964.94;;;18.54;100.00
35435;BME280;21556;55.782;37.528;2023-07-31T02:28:06;98969.59;;;18.44;100.00
35435;BME280;21556;55.782;37.528;2023-07-31T02:30:32;98963.50;;;18.41;100.00
35435;BME280;21556;55.782;37.528;2023-07-31T02:32:58;98967.16;;;18.38;100.00
35435;BME280;21556;55.782;37.528;2023-07-31T02:35:25;98961.19;;;18.28;100.00
35435;BME280;21556;55.782;37.528;2023-07-31T02:37:51;98962.97;;;18.28;100.00
35435;BME280;21556;55.782;37.528;2023-07-31T02:40:18;98965.88;;;18.19;100.00
35435;BME280;21556;55.782;37.528;2023-07-31T02:42:47;98966.63;;;18.24;100.00
35435;BME280;21556;55.782;37.528;2023-07-31T02:48:40;98970.09;;;18.26;100.00
35435;BME280;21556;55.782;37.528;2023-07-31T02:51:05;98961.28;;;18.25;100.00
35435;BME280;21556;55.782;37.528;2023-07-31T02:53:31;98963.13;;;18.22;100.00
35435;BME280;21556;55.782;37.528;2023-07-31T02:55:58;98964.78;;;18.26;100.00
35435;BME280;21556;55.782;37.528;2023-07-31T02:58:24;98965.75;;;18.23;100.00
35435;BME280;21556;55.782;37.528;2023-07-31T03:00:50;98969.31;;;18.22;100.00
35435;BME280;21556;55.782;37.528;2023-07-31T03:03:15;98972.69;;;18.29;100.00
35435;BME280;21556;55.782;37.528;2023-07-31T03:05:45;98971.94;;;18.24;100.00
35435;BME280;21556;55.782;37.528;2023-07-31T03:08:11;98972.38;;;18.41;100.00
35435;BME280;21556;55.782;37.528;2023-07-31T03:10:37;98965.94;;;18.50;100.00
35435;BME280;21556;55.782;37.528;2023-07-31T03:13:04;98973.97;;;18.47;100.00
35435;BME280;21556;55.782;37.528;2023-07-31T03:15:29;98969.31;;;18.55;100.00
35435;BME280;21556;55.782;37.528;2023-07-31T03:17:56;98965.84;;;18.53;100.00
35435;BME280;21556;55.782;37.528;2023-07-31T03:20:22;98961.78;;;18.72;100.00
35435;BME280;21556;55.782;37.528;2023-07-31T03:22:48;98955.88;;;18.94;100.00
35435;BME280;21556;55.782;37.528;2023-07-31T03:25:16;98957.72;;;18.59;100.00
35435;BME280;21556;55.782;37.528;2023-07-31T03:27:42;98963.41;;;18.78;100.00
35435;BME280;21556;55.782;37.528;2023-07-31T03:30:08;98955.63;;;18.70;100.00
35435;BME280;21556;55.782;37.528;2023-07-31T03:32:34;98958.50;;;18.63;100.00
35435;BME280;21556;55.782;37.528;2023-07-31T03:35:00;98953.66;;;18.79;100.00
35435;BME280;21556;55.782;37.528;2023-07-31T03:37:26;98952.91;;;18.73;100.00
35435;BME280;21556;55.782;37.528;2023-07-31T03:39:52;98954.75;;;18.70;100.00
35435;BME280;21556;55.782;37.528;2023-07-31T03:42:19;98957.03;;;18.84;100.00
35435;BME280;21556;55.782;37.528;2023-07-31T03:44:45;98951.78;;;18.82;100.00
35435;BME280;21556;55.782;37.528;2023-07-31T03:47:13;98952.75;;;19.09;100.00
35435;BME280;21556;55.782;37.528;2023-07-31T03:49:39;98954.22;;;18.90;100.00
35435;BME280;21556;55.782;37.528;2023-07-31T03:52:07;98951.38;;;19.26;100.00
35435;BME280;21556;55.782;37.528;2023-07-31T03:54:33;98951.72;;;19.15;100.00
35435;BME280;21556;55.782;37.528;2023-07-31T03:56:59;98954.38;;;19.15;100.00
35435;BME280;21556;55.782;37.528;2023-07-31T03:59:25;98944.06;;;19.04;100.00
35435;BME280;21556;55.782;37.528;2023-07-31T04:01:51;98954.78;;;19.01;100.00
35435;BME280;21556;55.782;37.528;2023-07-31T04:04:16;98950.53;;;19.23;100.00
35435;BME280;21556;55.782;37.528;2023-07-31T04:06:42;98946.59;;;19.37;100.00
35435;BME280;21556;55.782;37.528;2023-07-31T04:09:08;98958.63;;;19.20;100.00
35435;BME280;21556;55.782;37.528;2023-07-31T04:11:36;98949.50;;;19.29;100.00
35435;BME280;21556;55.782;37.528;2023-07-31T04:14:04;98959.72;;;19.43;100.00
35435;BME280;21556;55.782;37.528;2023-07-31T04:16:31;98953.91;;;19.58;100.00
35435;BME280;21556;55.782;37.528;2023-07-31T04:18:57;98958.06;;;19.68;100.00
35435;BME280;21556;55.782;37.528;2023-07-31T04:21:22;98958.50;;;19.81;100.00
35435;BME280;21556;55.782;37.528;2023-07-31T04:23:48;98955.50;;;19.92;100.00
35435;BME280;21556;55.782;37.528;2023-07-31T04:26:14;98959.28;;;19.85;100.00
35435;BME280;21556;55.782;37.528;2023-07-31T04:28:42;98965.81;;;19.75;100.00
35435;BME280;21556;55.782;37.528;2023-07-31T04:31:08;98959.00;;;19.94;100.00
35435;BME280;21556;55.782;37.528;2023-07-31T04:33:36;98964.09;;;20.00;100.00
35435;BME280;21556;55.782;37.528;2023-07-31T04:36:01;98958.94;;;19.95;100.00
35435;BME280;21556;55.782;37.528;2023-07-31T04:38:29;98963.81;;;20.08;100.00
35435;BME280;21556;55.782;37.528;2023-07-31T04:40:55;98968.97;;;20.14;100.00
35435;BME280;21556;55.782;37.528;2023-07-31T04:43:20;98971.22;;;20.26;100.00
35435;BME280;21556;55.782;37.528;2023-07-31T04:45:46;98965.38;;;20.40;100.00
35435;BME280;21556;55.782;37.528;2023-07-31T04:48:13;98962.72;;;20.40;100.00
35435;BME280;21556;55.782;37.528;2023-07-31T04:50:42;98968.53;;;20.53;100.00
35435;BME280;21556;55.782;37.528;2023-07-31T04:53:10;98967.25;;;20.38;100.00
35435;BME280;21556;55.782;37.528;2023-07-31T04:55:36;98969.53;;;20.49;100.00
35435;BME280;21556;55.782;37.528;2023-07-31T04:58:02;98963.88;;;20.59;100.00
35435;BME280;21556;55.782;37.528;2023-07-31T05:00:27;98975.88;;;20.71;100.00
35435;BME280;21556;55.782;37.528;2023-07-31T05:02:53;98970.06;;;20.60;100.00
35435;BME280;21556;55.782;37.528;2023-07-31T05:05:19;98972.47;;;20.66;100.00
35435;BME280;21556;55.782;37.528;2023-07-31T05:07:44;98974.06;;;20.72;100.00
35435;BME280;21556;55.782;37.528;2023-07-31T05:10:11;98970.19;;;20.80;100.00
35435;BME280;21556;55.782;37.528;2023-07-31T05:12:40;98969.88;;;20.89;100.00
35435;BME280;21556;55.782;37.528;2023-07-31T05:15:11;98973.97;;;20.98;100.00
35435;BME280;21556;55.782;37.528;2023-07-31T05:17:38;98971.53;;;20.68;100.00
35435;BME280;21556;55.782;37.528;2023-07-31T05:20:08;98968.13;;;20.88;100.00
35435;BME280;21556;55.782;37.528;2023-07-31T05:22:37;98963.50;;;20.94;100.00
35435;BME280;21556;55.782;37.528;2023-07-31T05:25:14;98968.59;;;21.00;100.00
35435;BME280;21556;55.782;37.528;2023-07-31T05:28:31;98960.84;;;21.17;100.00
35435;BME280;21556;55.782;37.528;2023-07-31T05:33:54;98962.91;;;21.32;100.00
35435;BME280;21556;55.782;37.528;2023-07-31T05:36:21;98967.53;;;21.27;100.00
35435;BME280;21556;55.782;37.528;2023-07-31T05:38:51;98963.03;;;21.29;100.00
35435;BME280;21556;55.782;37.528;2023-07-31T05:41:17;98970.91;;;21.32;100.00
35435;BME280;21556;55.782;37.528;2023-07-31T05:43:43;98966.31;;;21.59;100.00
35435;BME280;21556;55.782;37.528;2023-07-31T05:46:10;98975.50;;;21.74;100.00
35435;BME280;21556;55.782;37.528;2023-07-31T05:48:37;98972.03;;;21.72;100.00
35435;BME280;21556;55.782;37.528;2023-07-31T05:51:03;98969.41;;;22.15;100.00
35435;BME280;21556;55.782;37.528;2023-07-31T05:53:28;98974.06;;;22.09;100.00
35435;BME280;21556;55.782;37.528;2023-07-31T05:55:54;98972.50;;;22.26;100.00
35435;BME280;21556;55.782;37.528;2023-07-31T05:58:20;98966.91;;;22.52;100.00
35435;BME280;21556;55.782;37.528;2023-07-31T06:00:46;98969.63;;;22.71;100.00
35435;BME280;21556;55.782;37.528;2023-07-31T06:03:11;98970.38;;;22.95;100.00
35435;BME280;21556;55.782;37.528;2023-07-31T06:05:37;98967.03;;;22.70;100.00
35435;BME280;21556;55.782;37.528;2023-07-31T06:08:05;98963.81;;;23.02;100.00
35435;BME280;21556;55.782;37.528;2023-07-31T06:10:32;98956.78;;;23.57;100.00
35435;BME280;21556;55.782;37.528;2023-07-31T06:12:57;98962.34;;;23.90;100.00
35435;BME280;21556;55.782;37.528;2023-07-31T06:15:23;98958.44;;;23.78;100.00
35435;BME280;21556;55.782;37.528;2023-07-31T06:17:49;98958.03;;;24.05;100.00
35435;BME280;21556;55.782;37.528;2023-07-31T06:20:15;98962.84;;;24.33;100.00
35435;BME280;21556;55.782;37.528;2023-07-31T06:22:40;98963.16;;;24.09;100.00
35435;BME280;21556;55.782;37.528;2023-07-31T06:25:07;98958.31;;;24.52;100.00
35435;BME280;21556;55.782;37.528;2023-07-31T06:27:36;98950.00;;;24.22;100.00
35435;BME280;21556;55.782;37.528;2023-07-31T06:30:06;98953.47;;;24.24;100.00
35435;BME280;21556;55.782;37.528;2023-07-31T06:32:34;98958.94;;;24.40;100.00
35435;BME280;21556;55.782;37.528;2023-07-31T06:35:06;98959.38;;;24.83;100.00
35435;BME280;21556;55.782;37.528;2023-07-31T06:37:35;98964.44;;;24.54;100.00
35435;BME280;21556;55.782;37.528;2023-07-31T06:40:01;98970.75;;;24.70;100.00
35435;BME280;21556;55.782;37.528;2023-07-31T06:42:28;98968.41;;;24.97;100.00
35435;BME280;21556;55.782;37.528;2023-07-31T06:44:57;98969.97;;;25.02;100.00
35435;BME280;21556;55.782;37.528;2023-07-31T06:47:29;98971.94;;;24.98;100.00
35435;BME280;21556;55.782;37.528;2023-07-31T06:49:55;98973.44;;;25.21;100.00
35435;BME280;21556;55.782;37.528;2023-07-31T06:52:21;98971.38;;;25.42;100.00
35435;BME280;21556;55.782;37.528;2023-07-31T06:54:59;98972.59;;;25.52;100.00
35435;BME280;21556;55.782;37.528;2023-07-31T06:57:31;98975.47;;;25.49;100.00
35435;BME280;21556;55.782;37.528;2023-07-31T06:59:56;98975.00;;;25.73;100.00
35435;BME280;21556;55.782;37.528;2023-07-31T07:02:22;98975.59;;;26.09;100.00
35435;BME280;21556;55.782;37.528;2023-07-31T07:04:48;98961.28;;;26.55;100.00
35435;BME280;21556;55.782;37.528;2023-07-31T07:07:15;98968.84;;;27.07;100.00
35435;BME280;21556;55.782;37.528;2023-07-31T07:09:41;98958.16;;;26.77;100.00
35435;BME280;21556;55.782;37.528;2023-07-31T07:12:07;98961.22;;;26.71;100.00
35435;BME280;21556;55.782;37.528;2023-07-31T07:14:33;98968.03;;;26.91;100.00
35435;BME280;21556;55.782;37.528;2023-07-31T07:16:58;98962.38;;;26.81;100.00
35435;BME280;21556;55.782;37.528;2023-07-31T07:19:24;98962.13;;;27.14;100.00
35435;BME280;21556;55.782;37.528;2023-07-31T07:21:50;98960.47;;;27.40;100.00
35435;BME280;21556;55.782;37.528;2023-07-31T07:24:18;98959.72;;;28.06;100.00
35435;BME280;21556;55.782;37.528;2023-07-31T07:26:43;98957.06;;;28.46;100.00
35435;BME280;21556;55.782;37.528;2023-07-31T07:29:09;98956.84;;;28.49;100.00
35435;BME280;21556;55.782;37.528;2023-07-31T07:31:36;98955.38;;;28.58;100.00
35435;BME280;21556;55.782;37.528;2023-07-31T07:34:02;98953.56;;;29.10;100.00
35435;BME280;21556;55.782;37.528;2023-07-31T07:36:28;98956.91;;;29.00;100.00
35435;BME280;21556;55.782;37.528;2023-07-31T07:38:53;98965.16;;;29.61;100.00
35435;BME280;21556;55.782;37.528;2023-07-31T07:41:19;98964.41;;;29.46;100.00
35435;BME280;21556;55.782;37.528;2023-07-31T07:43:45;98965.91;;;29.63;100.00
35435;BME280;21556;55.782;37.528;2023-07-31T07:46:12;98963.44;;;29.84;100.00
35435;BME280;21556;55.782;37.528;2023-07-31T07:48:40;98961.47;;;30.58;96.65
35435;BME280;21556;55.782;37.528;2023-07-31T07:51:30;98958.31;;;30.76;91.79
35435;BME280;21556;55.782;37.528;2023-07-31T07:53:57;98969.19;;;30.52;97.11
35435;BME280;21556;55.782;37.528;2023-07-31T07:56:23;98956.38;;;31.11;89.00
35435;BME280;21556;55.782;37.528;2023-07-31T07:58:49;98951.09;;;30.17;91.10
35435;BME280;21556;55.782;37.528;2023-07-31T08:01:15;98956.28;;;30.20;93.67
35435;BME280;21556;55.782;37.528;2023-07-31T08:03:41;98957.25;;;31.57;83.04
35435;BME280;21556;55.782;37.528;2023-07-31T08:06:07;98952.69;;;32.12;82.49
35435;BME280;21556;55.782;37.528;2023-07-31T08:08:37;98949.97;;;33.07;76.75
35435;BME280;21556;55.782;37.528;2023-07-31T08:11:04;98955.84;;;33.43;74.38
35435;BME280;21556;55.782;37.528;2023-07-31T08:13:31;98958.28;;;33.46;72.90
35435;BME280;21556;55.782;37.528;2023-07-31T08:15:56;98962.94;;;31.54;77.67
35435;BME280;21556;55.782;37.528;2023-07-31T08:18:22;98968.56;;;31.73;80.10
35435;BME280;21556;55.782;37.528;2023-07-31T08:20:53;98964.50;;;32.22;74.39
35435;BME280;21556;55.782;37.528;2023-07-31T08:23:44;98957.41;;;33.36;69.75
35435;BME280;21556;55.782;37.528;2023-07-31T08:26:49;98959.38;;;32.82;71.17
35435;BME280;21556;55.782;37.528;2023-07-31T08:29:15;98955.09;;;32.79;71.10
35435;BME280;21556;55.782;37.528;2023-07-31T08:31:40;98961.16;;;32.93;74.31
35435;BME280;21556;55.782;37.528;2023-07-31T08:34:06;98963.16;;;33.12;66.01
35435;BME280;21556;55.782;37.528;2023-07-31T08:36:31;98968.28;;;32.63;72.31
35435;BME280;21556;55.782;37.528;2023-07-31T08:38:59;98971.19;;;32.39;67.84
35435;BME280;21556;55.782;37.528;2023-07-31T08:41:24;98972.34;;;32.36;72.54
35435;BME280;21556;55.782;37.528;2023-07-31T08:43:51;98962.03;;;32.93;66.83
35435;BME280;21556;55.782;37.528;2023-07-31T08:46:17;98967.88;;;32.68;70.17
35435;BME280;21556;55.782;37.528;2023-07-31T08:48:44;98966.03;;;31.49;74.24
35435;BME280;21556;55.782;37.528;2023-07-31T08:51:10;98973.97;;;31.96;75.38
35435;BME280;21556;55.782;37.528;2023-07-31T08:53:36;98965.22;;;32.77;69.30
35435;BME280;21556;55.782;37.528;2023-07-31T08:56:02;98965.19;;;32.35;71.48
35435;BME280;21556;55.782;37.528;2023-07-31T08:58:30;98975.00;;;30.69;81.42
35435;BME280;21556;55.782;37.528;2023-07-31T09:01:01;98985.81;;;31.05;77.55
35435;BME280;21556;55.782;37.528;2023-07-31T09:04:08;98968.47;;;32.18;71.17
35435;BME280;21556;55.782;37.528;2023-07-31T09:06:34;98972.19;;;32.38;73.59
35435;BME280;21556;55.782;37.528;2023-07-31T09:09:00;98956.22;;;32.56;64.12
35435;BME280;21556;55.782;37.528;2023-07-31T09:11:26;98959.34;;;33.54;59.72
35435;BME280;21556;55.782;37.528;2023-07-31T09:13:52;98955.53;;;32.43;67.63
35435;BME280;21556;55.782;37.528;2023-07-31T09:16:18;98959.06;;;31.79;69.73
35435;BME280;21556;55.782;37.528;2023-07-31T09:18:54;98964.25;;;32.99;62.59
35435;BME280;21556;55.782;37.528;2023-07-31T09:21:24;98964.06;;;33.22;60.69
35435;BME280;21556;55.782;37.528;2023-07-31T09:23:51;98953.25;;;31.95;64.08
35435;BME280;21556;55.782;37.528;2023-07-31T09:26:36;98969.31;;;32.19;69.22
35435;BME280;21556;55.782;37.528;2023-07-31T09:29:06;98968.19;;;31.89;75.77
35435;BME280;21556;55.782;37.528;2023-07-31T09:31:51;98968.19;;;31.78;76.59
35435;BME280;21556;55.782;37.528;2023-07-31T09:38:12;98970.06;;;30.99;76.22
35435;BME280;21556;55.782;37.528;2023-07-31T09:40:41;98963.25;;;31.94;71.30
35435;BME280;21556;55.782;37.528;2023-07-31T09:43:10;98966.44;;;31.99;71.05
35435;BME280;21556;55.782;37.528;2023-07-31T09:45:37;98961.19;;;31.64;72.64
35435;BME280;21556;55.782;37.528;2023-07-31T09:48:07;98963.16;;;32.17;73.91
35435;BME280;21556;55.782;37.528;2023-07-31T09:50:34;98953.09;;;32.81;64.84
35435;BME280;21556;55.782;37.528;2023-07-31T09:53:01;98953.41;;;32.25;58.27
35435;BME280;21556;55.782;37.528;2023-07-31T09:55:27;98966.22;;;30.43;73.96
35435;BME280;21556;55.782;37.528;2023-07-31T09:57:57;98963.16;;;30.95;69.51
35435;BME280;21556;55.782;37.528;2023-07-31T10:00:23;98958.84;;;31.26;67.80
35435;BME280;21556;55.782;37.528;2023-07-31T10:02:53;98966.56;;;30.15;71.64
35435;BME280;21556;55.782;37.528;2023-07-31T10:05:19;98964.19;;;30.10;73.73
35435;BME280;21556;55.782;37.528;2023-07-31T10:07:55;98959.19;;;29.69;78.55
35435;BME280;21556;55.782;37.528;2023-07-31T10:10:22;98973.69;;;29.92;80.82
35435;BME280;21556;55.782;37.528;2023-07-31T10:12:53;98973.19;;;30.11;80.09
35435;BME280;21556;55.782;37.528;2023-07-31T10:15:19;98967.75;;;30.35;80.13
35435;BME280;21556;55.782;37.528;2023-07-31T10:17:49;98973.38;;;29.47;86.03
35435;BME280;21556;55.782;37.528;2023-07-31T10:20:15;98973.22;;;28.99;91.72
35435;BME280;21556;55.782;37.528;2023-07-31T10:22:44;98977.56;;;29.01;91.87
35435;BME280;21556;55.782;37.528;2023-07-31T10:25:13;98973.75;;;30.27;89.56
35435;BME280;21556;55.782;37.528;2023-07-31T10:27:47;98975.50;;;29.55;90.32
35435;BME280;21556;55.782;37.528;2023-07-31T10:30:14;98980.09;;;29.16;92.83
35435;BME280;21556;55.782;37.528;2023-07-31T10:32:41;98980.28;;;29.64;87.55
35435;BME280;21556;55.782;37.528;2023-07-31T10:35:08;98982.13;;;29.87;85.21
35435;BME280;21556;55.782;37.528;2023-07-31T10:37:38;98970.81;;;30.54;78.39
35435;BME280;21556;55.782;37.528;2023-07-31T10:40:23;98964.88;;;31.29;76.60
35435;BME280;21556;55.782;37.528;2023-07-31T10:42:53;98968.38;;;31.43;72.05
35435;BME280;21556;55.782;37.528;2023-07-31T10:45:26;98968.66;;;30.46;80.13
35435;BME280;21556;55.782;37.528;2023-07-31T10:48:02;98971.66;;;30.19;78.46
35435;BME280;21556;55.782;37.528;2023-07-31T10:50:29;98971.75;;;29.94;79.22
35435;BME280;21556;55.782;37.528;2023-07-31T10:53:06;98974.81;;;29.77;81.53
35435;BME280;21556;55.782;37.528;2023-07-31T10:55:38;98971.88;;;29.30;85.12
35435;BME280;21556;55.782;37.528;2023-07-31T11:00:31;98976.31;;;28.67;90.14
35435;BME280;21556;55.782;37.528;2023-07-31T11:03:01;98985.63;;;28.76;92.02
35435;BME280;21556;55.782;37.528;2023-07-31T11:08:21;98979.00;;;28.93;92.20
35435;BME280;21556;55.782;37.528;2023-07-31T11:10:48;98986.28;;;29.18;87.08
35435;BME280;21556;55.782;37.528;2023-07-31T11:13:14;98970.75;;;29.09;90.72
35435;BME280;21556;55.782;37.528;2023-07-31T11:15:40;98981.69;;;29.44;83.32
35435;BME280;21556;55.782;37.528;2023-07-31T11:18:05;98982.97;;;29.51;82.15
35435;BME280;21556;55.782;37.528;2023-07-31T11:20:33;98981.25;;;29.63;82.62
35435;BME280;21556;55.782;37.528;2023-07-31T11:23:04;98977.38;;;29.67;81.68
35435;BME280;21556;55.782;37.528;2023-07-31T11:25:32;98975.69;;;29.77;84.46
35435;BME280;21556;55.782;37.528;2023-07-31T11:28:09;98981.34;;;29.98;83.62
35435;BME280;21556;55.782;37.528;2023-07-31T11:30:35;98969.03;;;29.94;77.97
35435;BME280;21556;55.782;37.528;2023-07-31T11:33:02;98979.41;;;29.50;82.19
35435;BME280;21556;55.782;37.528;2023-07-31T11:35:31;98976.31;;;29.81;77.80
35435;BME280;21556;55.782;37.528;2023-07-31T11:37:58;98972.94;;;29.53;88.39
35435;BME280;21556;55.782;37.528;2023-07-31T11:40:26;98968.84;;;29.84;80.31
35435;BME280;21556;55.782;37.528;2023-07-31T11:42:55;98970.88;;;29.93;79.87
35435;BME280;21556;55.782;37.528;2023-07-31T11:45:21;98967.53;;;29.53;86.51
35435;BME280;21556;55.782;37.528;2023-07-31T11:47:56;98968.97;;;28.95;92.92
35435;BME280;21556;55.782;37.528;2023-07-31T11:50:27;98970.44;;;29.63;84.31
35435;BME280;21556;55.782;37.528;2023-07-31T11:52:57;98975.50;;;29.55;84.15
35435;BME280;21556;55.782;37.528;2023-07-31T11:55:27;98965.69;;;29.54;83.56
35435;BME280;21556;55.782;37.528;2023-07-31T11:57:54;98971.03;;;28.91;91.61
35435;BME280;21556;55.782;37.528;2023-07-31T12:00:23;98972.50;;;28.44;96.39
35435;BME280;21556;55.782;37.528;2023-07-31T12:02:50;98973.28;;;28.32;97.74
35435;BME280;21556;55.782;37.528;2023-07-31T12:05:16;98981.59;;;28.02;98.72
35435;BME280;21556;55.782;37.528;2023-07-31T12:07:47;98971.66;;;28.82;95.39
35435;BME280;21556;55.782;37.528;2023-07-31T12:10:29;98972.13;;;28.76;96.42
35435;BME280;21556;55.782;37.528;2023-07-31T12:13:03;98977.00;;;28.04;100.00
35435;BME280;21556;55.782;37.528;2023-07-31T12:15:30;98982.59;;;28.01;100.00
35435;BME280;21556;55.782;37.528;2023-07-31T12:17:57;98983.81;;;27.82;100.00
35435;BME280;21556;55.782;37.528;2023-07-31T12:20:24;98992.81;;;27.81;100.00
35435;BME280;21556;55.782;37.528;2023-07-31T12:22:52;98996.41;;;27.68;100.00
35435;BME280;21556;55.782;37.528;2023-07-31T12:25:34;98990.69;;;27.45;100.00
35435;BME280;21556;55.782;37.528;2023-07-31T12:28:04;98993.94;;;27.36;100.00
35435;BME280;21556;55.782;37.528;2023-07-31T12:30:34;98994.94;;;27.35;100.00
35435;BME280;21556;55.782;37.528;2023-07-31T12:33:13;98992.91;;;27.39;100.00
35435;BME280;21556;55.782;37.528;2023-07-31T12:35:42;99000.16;;;27.65;100.00
35435;BME280;21556;55.782;37.528;2023-07-31T12:38:08;98999.13;;;27.53;100.00
35435;BME280;21556;55.782;37.528;2023-07-31T12:40:36;98998.75;;;27.45;100.00
35435;BME280;21556;55.782;37.528;2023-07-31T12:43:02;98998.84;;;27.15;100.00
35435;BME280;21556;55.782;37.528;2023-07-31T12:45:29;98993.78;;;27.25;100.00
35435;BME280;21556;55.782;37.528;2023-07-31T12:47:55;99001.66;;;27.42;100.00
35435;BME280;21556;55.782;37.528;2023-07-31T12:50:23;98995.63;;;27.66;100.00
35435;BME280;21556;55.782;37.528;2023-07-31T12:52:51;98994.50;;;27.55;100.00
35435;BME280;21556;55.782;37.528;2023-07-31T12:55:17;98991.81;;;27.41;100.00
35435;BME280;21556;55.782;37.528;2023-07-31T12:57:43;98996.94;;;27.46;100.00
35435;BME280;21556;55.782;37.528;2023-07-31T13:00:13;98996.34;;;27.41;100.00
35435;BME280;21556;55.782;37.528;2023-07-31T13:02:39;98992.59;;;27.29;100.00
35435;BME280;21556;55.782;37.528;2023-07-31T13:05:05;98995.66;;;27.37;100.00
35435;BME280;21556;55.782;37.528;2023-07-31T13:07:30;98990.94;;;27.55;100.00